sensor_id;sensor_type;location;lat;lon;timestamp;temperature;humidity
8313;DHT22;4194;43.408;24.626;2023-04-02T00:11:44;10.20;99.90
8313;DHT22;4194;43.408;24.626;2023-04-02T00:16:48;11.90;99.90
8313;DHT22;4194;43.408;24.626;2023-04-02T00:20:07;12.00;99.90
8313;DHT22;4194;43.408;24.626;2023-04-02T00:22:14;11.30;99.90
8313;DHT22;4194;43.408;24.626;2023-04-02T00:24:41;10.10;99.90
8313;DHT22;4194;43.408;24.626;2023-04-02T00:27:11;10.90;99.90
8313;DHT22;4194;43.408;24.626;2023-04-02T00:29:54;10.80;99.90
8313;DHT22;4194;43.408;24.626;2023-04-02T00:32:27;11.70;99.90
8313;DHT22;4194;43.408;24.626;2023-04-02T00:34:54;11.50;99.90
8313;DHT22;4194;43.408;24.626;2023-04-02T00:37:23;10.70;99.90
8313;DHT22;4194;43.408;24.626;2023-04-02T00:39:56;11.00;99.90
8313;DHT22;4194;43.408;24.626;2023-04-02T00:42:23;9.90;99.70
8313;DHT22;4194;43.408;24.626;2023-04-02T00:44:50;11.10;99.90
8313;DHT22;4194;43.408;24.626;2023-04-02T00:47:21;11.10;99.80
8313;DHT22;4194;43.408;24.626;2023-04-02T00:52:37;11.70;98.70
8313;DHT22;4194;43.408;24.626;2023-04-02T00:55:34;11.10;98.90
8313;DHT22;4194;43.408;24.626;2023-04-02T00:58:01;11.20;98.90
8313;DHT22;4194;43.408;24.626;2023-04-02T01:05:43;11.30;98.50
8313;DHT22;4194;43.408;24.626;2023-04-02T01:16:51;11.20;97.90
8313;DHT22;4194;43.408;24.626;2023-04-02T01:23:05;11.70;97.50
8313;DHT22;4194;43.408;24.626;2023-04-02T01:25:25;11.00;97.40
8313;DHT22;4194;43.408;24.626;2023-04-02T01:28:17;11.60;96.60
8313;DHT22;4194;43.408;24.626;2023-04-02T01:30:51;11.50;96.80
8313;DHT22;4194;43.408;24.626;2023-04-02T01:33:21;11.60;96.40
8313;DHT22;4194;43.408;24.626;2023-04-02T01:35:54;11.00;96.10
8313;DHT22;4194;43.408;24.626;2023-04-02T01:38:37;11.30;96.60
8313;DHT22;4194;43.408;24.626;2023-04-02T01:41:12;11.40;96.60
8313;DHT22;4194;43.408;24.626;2023-04-02T01:43:54;11.10;96.40
8313;DHT22;4194;43.408;24.626;2023-04-02T01:46:31;11.20;98.10
8313;DHT22;4194;43.408;24.626;2023-04-02T01:49:02;10.20;99.40
8313;DHT22;4194;43.408;24.626;2023-04-02T01:51:31;11.40;99.90
8313;DHT22;4194;43.408;24.626;2023-04-02T01:53:59;12.20;99.90
8313;DHT22;4194;43.408;24.626;2023-04-02T01:56:28;10.20;99.90
8313;DHT22;4194;43.408;24.626;2023-04-02T01:58:56;11.10;99.90
8313;DHT22;4194;43.408;24.626;2023-04-02T02:01:35;11.00;99.90
8313;DHT22;4194;43.408;24.626;2023-04-02T02:04:03;11.00;99.90
8313;DHT22;4194;43.408;24.626;2023-04-02T02:06:29;12.00;99.90
8313;DHT22;4194;43.408;24.626;2023-04-02T02:08:58;12.00;99.90
8313;DHT22;4194;43.408;24.626;2023-04-02T02:11:28;12.00;99.90
8313;DHT22;4194;43.408;24.626;2023-04-02T02:14:00;11.10;99.90
8313;DHT22;4194;43.408;24.626;2023-04-02T02:16:27;12.00;99.90
8313;DHT22;4194;43.408;24.626;2023-04-02T02:18:58;12.00;99.90
8313;DHT22;4194;43.408;24.626;2023-04-02T02:21:46;12.10;99.90
8313;DHT22;4194;43.408;24.626;2023-04-02T02:24:25;11.10;99.90
8313;DHT22;4194;43.408;24.626;2023-04-02T02:32:17;11.20;99.90
8313;DHT22;4194;43.408;24.626;2023-04-02T02:34:53;11.00;99.90
8313;DHT22;4194;43.408;24.626;2023-04-02T02:37:34;11.10;99.90
8313;DHT22;4194;43.408;24.626;2023-04-02T02:40:04;11.10;99.90
8313;DHT22;4194;43.408;24.626;2023-04-02T02:42:35;10.90;99.90
8313;DHT22;4194;43.408;24.626;2023-04-02T02:45:05;11.70;99.60
8313;DHT22;4194;43.408;24.626;2023-04-02T02:47:36;11.10;99.50
8313;DHT22;4194;43.408;24.626;2023-04-02T02:50:06;12.10;99.60
8313;DHT22;4194;43.408;24.626;2023-04-02T02:52:37;10.20;98.50
8313;DHT22;4194;43.408;24.626;2023-04-02T02:55:14;10.90;98.80
8313;DHT22;4194;43.408;24.626;2023-04-02T02:57:50;11.50;98.80
8313;DHT22;4194;43.408;24.626;2023-04-02T03:00:17;12.00;99.80
8313;DHT22;4194;43.408;24.626;2023-04-02T03:02:44;11.50;99.90
8313;DHT22;4194;43.408;24.626;2023-04-02T03:05:21;11.80;99.90
8313;DHT22;4194;43.408;24.626;2023-04-02T03:07:49;11.10;99.90
8313;DHT22;4194;43.408;24.626;2023-04-02T03:10:31;10.90;99.90
8313;DHT22;4194;43.408;24.626;2023-04-02T03:16:09;11.70;99.90
8313;DHT22;4194;43.408;24.626;2023-04-02T03:18:48;9.80;99.60
8313;DHT22;4194;43.408;24.626;2023-04-02T03:21:43;11.80;99.60
8313;DHT22;4194;43.408;24.626;2023-04-02T03:24:36;11.00;99.80
8313;DHT22;4194;43.408;24.626;2023-04-02T03:27:25;10.10;99.10
8313;DHT22;4194;43.408;24.626;2023-04-02T03:32:56;11.40;99.50
8313;DHT22;4194;43.408;24.626;2023-04-02T03:35:31;11.50;99.40
8313;DHT22;4194;43.408;24.626;2023-04-02T03:38:14;11.10;99.80
8313;DHT22;4194;43.408;24.626;2023-04-02T03:41:10;10.00;99.30
8313;DHT22;4194;43.408;24.626;2023-04-02T03:43:42;10.90;99.60
8313;DHT22;4194;43.408;24.626;2023-04-02T03:46:40;11.00;99.80
8313;DHT22;4194;43.408;24.626;2023-04-02T03:49:15;10.60;99.50
8313;DHT22;4194;43.408;24.626;2023-04-02T03:51:53;11.00;99.90
8313;DHT22;4194;43.408;24.626;2023-04-02T03:54:20;11.70;99.90
8313;DHT22;4194;43.408;24.626;2023-04-02T03:56:46;11.00;99.90
8313;DHT22;4194;43.408;24.626;2023-04-02T03:59:38;10.90;99.90
8313;DHT22;4194;43.408;24.626;2023-04-02T04:04:33;11.00;99.90
8313;DHT22;4194;43.408;24.626;2023-04-02T04:07:00;10.80;99.90
8313;DHT22;4194;43.408;24.626;2023-04-02T04:09:34;10.80;99.90
8313;DHT22;4194;43.408;24.626;2023-04-02T04:12:29;12.10;99.90
8313;DHT22;4194;43.408;24.626;2023-04-02T04:15:08;10.60;99.90
8313;DHT22;4194;43.408;24.626;2023-04-02T04:18:02;10.70;99.90
8313;DHT22;4194;43.408;24.626;2023-04-02T04:20:43;10.40;99.90
8313;DHT22;4194;43.408;24.626;2023-04-02T04:23:21;10.70;99.90
8313;DHT22;4194;43.408;24.626;2023-04-02T04:25:59;10.50;99.80
8313;DHT22;4194;43.408;24.626;2023-04-02T04:28:37;10.70;99.90
8313;DHT22;4194;43.408;24.626;2023-04-02T04:31:49;10.90;99.90
8313;DHT22;4194;43.408;24.626;2023-04-02T04:34:33;10.80;99.90
8313;DHT22;4194;43.408;24.626;2023-04-02T04:37:04;11.80;99.50
8313;DHT22;4194;43.408;24.626;2023-04-02T04:42:07;10.60;99.00
8313;DHT22;4194;43.408;24.626;2023-04-02T04:44:44;10.90;99.50
8313;DHT22;4194;43.408;24.626;2023-04-02T04:47:20;11.20;99.50
8313;DHT22;4194;43.408;24.626;2023-04-02T04:50:14;11.00;99.00
8313;DHT22;4194;43.408;24.626;2023-04-02T04:52:42;11.30;98.30
8313;DHT22;4194;43.408;24.626;2023-04-02T04:55:36;11.40;98.40
8313;DHT22;4194;43.408;24.626;2023-04-02T04:58:30;11.20;97.80
8313;DHT22;4194;43.408;24.626;2023-04-02T05:04:13;11.80;98.00
8313;DHT22;4194;43.408;24.626;2023-04-02T05:09:35;11.20;97.70
8313;DHT22;4194;43.408;24.626;2023-04-02T05:17:29;11.30;96.90
8313;DHT22;4194;43.408;24.626;2023-04-02T05:25:31;12.00;95.30
8313;DHT22;4194;43.408;24.626;2023-04-02T05:28:39;11.90;95.30
8313;DHT22;4194;43.408;24.626;2023-04-02T05:31:13;11.80;94.60
8313;DHT22;4194;43.408;24.626;2023-04-02T05:33:45;12.00;94.40
8313;DHT22;4194;43.408;24.626;2023-04-02T05:36:18;11.00;93.20
8313;DHT22;4194;43.408;24.626;2023-04-02T05:38:46;12.00;94.00
8313;DHT22;4194;43.408;24.626;2023-04-02T05:41:23;11.80;93.70
8313;DHT22;4194;43.408;24.626;2023-04-02T05:44:10;12.30;93.30
8313;DHT22;4194;43.408;24.626;2023-04-02T05:46:53;11.90;93.80
8313;DHT22;4194;43.408;24.626;2023-04-02T05:49:42;11.90;92.90
8313;DHT22;4194;43.408;24.626;2023-04-02T05:52:22;12.00;92.10
8313;DHT22;4194;43.408;24.626;2023-04-02T05:54:53;11.80;92.40
8313;DHT22;4194;43.408;24.626;2023-04-02T05:57:30;11.90;91.60
8313;DHT22;4194;43.408;24.626;2023-04-02T05:59:59;11.90;91.90
8313;DHT22;4194;43.408;24.626;2023-04-02T06:02:36;12.10;91.30
8313;DHT22;4194;43.408;24.626;2023-04-02T06:05:14;12.00;90.20
8313;DHT22;4194;43.408;24.626;2023-04-02T06:10:17;11.80;89.00
8313;DHT22;4194;43.408;24.626;2023-04-02T06:12:54;12.80;90.30
8313;DHT22;4194;43.408;24.626;2023-04-02T06:15:21;12.80;90.10
8313;DHT22;4194;43.408;24.626;2023-04-02T06:20:30;12.40;87.50
8313;DHT22;4194;43.408;24.626;2023-04-02T06:23:34;14.50;90.00
8313;DHT22;4194;43.408;24.626;2023-04-02T06:31:37;13.50;87.50
8313;DHT22;4194;43.408;24.626;2023-04-02T06:34:32;14.60;88.40
8313;DHT22;4194;43.408;24.626;2023-04-02T06:37:36;13.40;87.10
8313;DHT22;4194;43.408;24.626;2023-04-02T06:39:55;14.20;87.90
8313;DHT22;4194;43.408;24.626;2023-04-02T06:42:34;14.40;87.40
8313;DHT22;4194;43.408;24.626;2023-04-02T06:45:01;13.40;87.20
8313;DHT22;4194;43.408;24.626;2023-04-02T06:47:40;13.50;86.70
8313;DHT22;4194;43.408;24.626;2023-04-02T06:50:20;13.60;85.80
8313;DHT22;4194;43.408;24.626;2023-04-02T06:53:06;13.70;85.60
8313;DHT22;4194;43.408;24.626;2023-04-02T06:55:48;13.80;83.70
8313;DHT22;4194;43.408;24.626;2023-04-02T06:58:16;14.40;83.90
8313;DHT22;4194;43.408;24.626;2023-04-02T07:00:44;13.80;83.50
8313;DHT22;4194;43.408;24.626;2023-04-02T07:03:27;14.40;83.10
8313;DHT22;4194;43.408;24.626;2023-04-02T07:05:54;14.20;83.40
8313;DHT22;4194;43.408;24.626;2023-04-02T07:08:20;15.60;83.80
8313;DHT22;4194;43.408;24.626;2023-04-02T07:10:46;15.10;82.90
8313;DHT22;4194;43.408;24.626;2023-04-02T07:13:20;14.50;82.30
8313;DHT22;4194;43.408;24.626;2023-04-02T07:15:52;14.40;82.20
8313;DHT22;4194;43.408;24.626;2023-04-02T07:18:23;15.40;82.80
8313;DHT22;4194;43.408;24.626;2023-04-02T07:23:16;15.40;82.90
8313;DHT22;4194;43.408;24.626;2023-04-02T07:25:42;14.60;83.40
8313;DHT22;4194;43.408;24.626;2023-04-02T07:28:07;14.60;83.10
8313;DHT22;4194;43.408;24.626;2023-04-02T07:30:33;15.80;82.60
8313;DHT22;4194;43.408;24.626;2023-04-02T07:32:59;14.80;81.60
8313;DHT22;4194;43.408;24.626;2023-04-02T07:35:24;15.10;81.20
8313;DHT22;4194;43.408;24.626;2023-04-02T07:37:51;14.60;81.50
8313;DHT22;4194;43.408;24.626;2023-04-02T07:40:20;15.70;82.00
8313;DHT22;4194;43.408;24.626;2023-04-02T07:45:13;14.80;81.30
8313;DHT22;4194;43.408;24.626;2023-04-02T07:47:39;14.70;82.00
8313;DHT22;4194;43.408;24.626;2023-04-02T07:50:05;15.30;82.70
8313;DHT22;4194;43.408;24.626;2023-04-02T07:54:58;15.10;82.30
8313;DHT22;4194;43.408;24.626;2023-04-02T07:57:26;14.90;80.10
8313;DHT22;4194;43.408;24.626;2023-04-02T07:59:52;15.50;80.50
8313;DHT22;4194;43.408;24.626;2023-04-02T08:02:21;15.50;80.30
8313;DHT22;4194;43.408;24.626;2023-04-02T08:04:48;15.40;80.70
8313;DHT22;4194;43.408;24.626;2023-04-02T08:07:16;15.40;79.80
8313;DHT22;4194;43.408;24.626;2023-04-02T08:09:41;15.00;78.70
8313;DHT22;4194;43.408;24.626;2023-04-02T08:12:11;14.80;79.10
8313;DHT22;4194;43.408;24.626;2023-04-02T08:14:37;15.60;80.70
8313;DHT22;4194;43.408;24.626;2023-04-02T08:17:03;15.50;80.00
8313;DHT22;4194;43.408;24.626;2023-04-02T08:19:28;15.60;80.30
8313;DHT22;4194;43.408;24.626;2023-04-02T08:21:55;16.50;80.60
8313;DHT22;4194;43.408;24.626;2023-04-02T08:24:21;15.70;80.30
8313;DHT22;4194;43.408;24.626;2023-04-02T08:26:48;16.20;80.50
8313;DHT22;4194;43.408;24.626;2023-04-02T08:29:14;15.60;80.00
8313;DHT22;4194;43.408;24.626;2023-04-02T08:31:40;15.80;81.10
8313;DHT22;4194;43.408;24.626;2023-04-02T08:34:06;15.90;79.00
8313;DHT22;4194;43.408;24.626;2023-04-02T08:36:34;16.20;79.40
8313;DHT22;4194;43.408;24.626;2023-04-02T08:39:01;16.20;80.10
8313;DHT22;4194;43.408;24.626;2023-04-02T08:41:27;16.50;79.90
8313;DHT22;4194;43.408;24.626;2023-04-02T08:44:10;16.40;78.90
8313;DHT22;4194;43.408;24.626;2023-04-02T08:47:01;16.30;77.90
8313;DHT22;4194;43.408;24.626;2023-04-02T08:51:59;16.20;76.90
8313;DHT22;4194;43.408;24.626;2023-04-02T08:54:30;16.40;77.80
8313;DHT22;4194;43.408;24.626;2023-04-02T08:59:40;15.60;73.20
8313;DHT22;4194;43.408;24.626;2023-04-02T09:04:48;17.80;74.10
8313;DHT22;4194;43.408;24.626;2023-04-02T09:07:16;17.10;73.90
8313;DHT22;4194;43.408;24.626;2023-04-02T09:09:46;17.10;73.30
8313;DHT22;4194;43.408;24.626;2023-04-02T09:12:19;17.20;73.30
8313;DHT22;4194;43.408;24.626;2023-04-02T09:17:22;17.30;68.20
8313;DHT22;4194;43.408;24.626;2023-04-02T09:20:17;17.30;68.30
8313;DHT22;4194;43.408;24.626;2023-04-02T09:22:47;18.50;70.40
8313;DHT22;4194;43.408;24.626;2023-04-02T09:25:21;16.50;68.50
8313;DHT22;4194;43.408;24.626;2023-04-02T09:27:49;17.20;68.30
8313;DHT22;4194;43.408;24.626;2023-04-02T09:32:52;17.70;68.70
8313;DHT22;4194;43.408;24.626;2023-04-02T09:35:22;17.70;66.00
8313;DHT22;4194;43.408;24.626;2023-04-02T09:43:19;17.40;64.20
8313;DHT22;4194;43.408;24.626;2023-04-02T09:45:58;18.50;65.00
8313;DHT22;4194;43.408;24.626;2023-04-02T09:51:18;18.40;65.80
8313;DHT22;4194;43.408;24.626;2023-04-02T09:54:07;18.10;62.80
8313;DHT22;4194;43.408;24.626;2023-04-02T09:56:36;18.90;61.60
8313;DHT22;4194;43.408;24.626;2023-04-02T09:59:18;18.50;60.90
8313;DHT22;4194;43.408;24.626;2023-04-02T10:04:41;18.50;61.40
8313;DHT22;4194;43.408;24.626;2023-04-02T10:12:44;19.60;63.80
8313;DHT22;4194;43.408;24.626;2023-04-02T10:15:19;19.30;62.30
8313;DHT22;4194;43.408;24.626;2023-04-02T10:17:50;18.20;59.90
8313;DHT22;4194;43.408;24.626;2023-04-02T10:20:23;18.70;61.00
8313;DHT22;4194;43.408;24.626;2023-04-02T10:22:51;18.30;59.80
8313;DHT22;4194;43.408;24.626;2023-04-02T10:25:19;18.00;60.20
8313;DHT22;4194;43.408;24.626;2023-04-02T10:33:20;19.20;62.10
8313;DHT22;4194;43.408;24.626;2023-04-02T10:36:05;18.30;61.10
8313;DHT22;4194;43.408;24.626;2023-04-02T10:41:27;20.00;59.40
8313;DHT22;4194;43.408;24.626;2023-04-02T10:52:48;20.70;57.20
8313;DHT22;4194;43.408;24.626;2023-04-02T10:55:22;20.80;55.70
8313;DHT22;4194;43.408;24.626;2023-04-02T10:57:50;20.80;56.30
8313;DHT22;4194;43.408;24.626;2023-04-02T11:00:24;20.00;55.80
8313;DHT22;4194;43.408;24.626;2023-04-02T11:03:13;20.20;55.20
8313;DHT22;4194;43.408;24.626;2023-04-02T11:05:48;20.50;55.80
8313;DHT22;4194;43.408;24.626;2023-04-02T11:08:40;21.50;53.90
8313;DHT22;4194;43.408;24.626;2023-04-02T11:11:14;20.80;52.00
8313;DHT22;4194;43.408;24.626;2023-04-02T11:14:16;22.90;53.20
8313;DHT22;4194;43.408;24.626;2023-04-02T11:16:42;21.60;51.70
8313;DHT22;4194;43.408;24.626;2023-04-02T11:24:01;20.30;52.00
8313;DHT22;4194;43.408;24.626;2023-04-02T11:26:34;21.00;53.40
8313;DHT22;4194;43.408;24.626;2023-04-02T11:31:41;22.70;49.90
8313;DHT22;4194;43.408;24.626;2023-04-02T11:37:10;23.30;48.00
8313;DHT22;4194;43.408;24.626;2023-04-02T11:39:54;21.90;49.40
8313;DHT22;4194;43.408;24.626;2023-04-02T11:42:28;21.60;51.40
8313;DHT22;4194;43.408;24.626;2023-04-02T11:44:57;21.10;51.90
8313;DHT22;4194;43.408;24.626;2023-04-02T11:47:25;20.80;52.60
8313;DHT22;4194;43.408;24.626;2023-04-02T11:55:31;22.20;47.50
8313;DHT22;4194;43.408;24.626;2023-04-02T12:11:43;24.80;44.30
8313;DHT22;4194;43.408;24.626;2023-04-02T12:16:53;24.40;44.30
8313;DHT22;4194;43.408;24.626;2023-04-02T12:19:19;25.10;45.20
8313;DHT22;4194;43.408;24.626;2023-04-02T12:21:45;25.20;43.10
8313;DHT22;4194;43.408;24.626;2023-04-02T12:24:19;24.90;44.00
8313;DHT22;4194;43.408;24.626;2023-04-02T12:26:45;24.90;44.40
8313;DHT22;4194;43.408;24.626;2023-04-02T12:29:26;23.80;45.50
8313;DHT22;4194;43.408;24.626;2023-04-02T12:31:54;23.10;46.10
8313;DHT22;4194;43.408;24.626;2023-04-02T12:34:23;21.30;45.40
8313;DHT22;4194;43.408;24.626;2023-04-02T12:36:52;21.40;45.80
8313;DHT22;4194;43.408;24.626;2023-04-02T12:41:44;23.30;48.10
8313;DHT22;4194;43.408;24.626;2023-04-02T12:44:15;22.00;47.70
8313;DHT22;4194;43.408;24.626;2023-04-02T12:46:43;22.80;45.10
8313;DHT22;4194;43.408;24.626;2023-04-02T12:51:47;24.60;44.30
8313;DHT22;4194;43.408;24.626;2023-04-02T12:54:17;24.90;44.90
8313;DHT22;4194;43.408;24.626;2023-04-02T12:56:44;29.40;40.60
8313;DHT22;4194;43.408;24.626;2023-04-02T13:02:00;30.90;39.30
8313;DHT22;4194;43.408;24.626;2023-04-02T13:04:27;32.50;34.40
8313;DHT22;4194;43.408;24.626;2023-04-02T13:06:53;32.40;33.30
8313;DHT22;4194;43.408;24.626;2023-04-02T13:09:34;32.10;33.20
8313;DHT22;4194;43.408;24.626;2023-04-02T13:12:01;32.50;33.70
8313;DHT22;4194;43.408;24.626;2023-04-02T13:14:27;32.60;33.40
8313;DHT22;4194;43.408;24.626;2023-04-02T13:16:54;33.70;32.70
8313;DHT22;4194;43.408;24.626;2023-04-02T13:19:21;32.20;33.10
8313;DHT22;4194;43.408;24.626;2023-04-02T13:21:48;32.90;34.30
8313;DHT22;4194;43.408;24.626;2023-04-02T13:24:22;31.20;35.40
8313;DHT22;4194;43.408;24.626;2023-04-02T13:26:49;29.40;37.30
8313;DHT22;4194;43.408;24.626;2023-04-02T13:29:28;28.20;38.80
8313;DHT22;4194;43.408;24.626;2023-04-02T13:32:00;26.60;37.70
8313;DHT22;4194;43.408;24.626;2023-04-02T13:34:26;29.70;36.50
8313;DHT22;4194;43.408;24.626;2023-04-02T13:36:53;32.30;34.50
8313;DHT22;4194;43.408;24.626;2023-04-02T13:39:18;32.20;32.90
8313;DHT22;4194;43.408;24.626;2023-04-02T13:41:56;32.80;32.00
8313;DHT22;4194;43.408;24.626;2023-04-02T13:44:30;32.30;32.20
8313;DHT22;4194;43.408;24.626;2023-04-02T13:46:59;33.20;32.70
8313;DHT22;4194;43.408;24.626;2023-04-02T13:49:26;32.70;32.80
8313;DHT22;4194;43.408;24.626;2023-04-02T13:52:00;33.70;31.90
8313;DHT22;4194;43.408;24.626;2023-04-02T13:54:45;34.50;31.40
8313;DHT22;4194;43.408;24.626;2023-04-02T13:57:16;35.20;32.20
8313;DHT22;4194;43.408;24.626;2023-04-02T13:59:52;35.00;31.30
8313;DHT22;4194;43.408;24.626;2023-04-02T14:02:20;35.40;32.00
8313;DHT22;4194;43.408;24.626;2023-04-02T14:04:51;34.70;32.00
8313;DHT22;4194;43.408;24.626;2023-04-02T14:31:13;34.80;30.90
8313;DHT22;4194;43.408;24.626;2023-04-02T14:36:18;35.80;29.40
8313;DHT22;4194;43.408;24.626;2023-04-02T14:39:16;35.00;31.20
8313;DHT22;4194;43.408;24.626;2023-04-02T14:41:57;34.80;29.70
8313;DHT22;4194;43.408;24.626;2023-04-02T14:44:27;34.10;30.20
8313;DHT22;4194;43.408;24.626;2023-04-02T14:47:22;35.30;30.70
8313;DHT22;4194;43.408;24.626;2023-04-02T14:49:52;34.90;30.20
8313;DHT22;4194;43.408;24.626;2023-04-02T14:52:21;34.40;29.60
8313;DHT22;4194;43.408;24.626;2023-04-02T14:54:54;32.90;29.50
8313;DHT22;4194;43.408;24.626;2023-04-02T14:57:44;34.30;31.10
8313;DHT22;4194;43.408;24.626;2023-04-02T15:00:34;34.00;31.40
8313;DHT22;4194;43.408;24.626;2023-04-02T15:03:21;34.20;30.20
8313;DHT22;4194;43.408;24.626;2023-04-02T15:06:00;33.50;29.90
8313;DHT22;4194;43.408;24.626;2023-04-02T15:11:14;33.20;30.60
8313;DHT22;4194;43.408;24.626;2023-04-02T15:18:43;36.00;29.90
8313;DHT22;4194;43.408;24.626;2023-04-02T15:26:46;34.90;29.70
8313;DHT22;4194;43.408;24.626;2023-04-02T15:32:35;32.90;31.10
8313;DHT22;4194;43.408;24.626;2023-04-02T15:38:13;26.50;37.80
8313;DHT22;4194;43.408;24.626;2023-04-02T15:43:23;22.20;43.70
8313;DHT22;4194;43.408;24.626;2023-04-02T15:46:02;22.20;47.50
8313;DHT22;4194;43.408;24.626;2023-04-02T15:56:55;19.30;50.80
8313;DHT22;4194;43.408;24.626;2023-04-02T15:59:33;19.00;51.30
8313;DHT22;4194;43.408;24.626;2023-04-02T16:07:56;17.40;51.60
8313;DHT22;4194;43.408;24.626;2023-04-02T16:10:36;17.50;53.20
8313;DHT22;4194;43.408;24.626;2023-04-02T16:13:18;17.90;54.30
8313;DHT22;4194;43.408;24.626;2023-04-02T16:16:02;19.00;54.60
8313;DHT22;4194;43.408;24.626;2023-04-02T16:21:07;18.90;55.70
8313;DHT22;4194;43.408;24.626;2023-04-02T16:23:37;17.80;55.40
8313;DHT22;4194;43.408;24.626;2023-04-02T16:28:45;16.30;54.70
8313;DHT22;4194;43.408;24.626;2023-04-02T16:34:06;16.40;56.10
8313;DHT22;4194;43.408;24.626;2023-04-02T16:36:42;17.00;57.20
8313;DHT22;4194;43.408;24.626;2023-04-02T16:42:08;15.20;55.90
8313;DHT22;4194;43.408;24.626;2023-04-02T16:52:41;16.50;58.60
8313;DHT22;4194;43.408;24.626;2023-04-02T17:00:49;16.10;59.90
8313;DHT22;4194;43.408;24.626;2023-04-02T17:06:08;16.90;61.00
8313;DHT22;4194;43.408;24.626;2023-04-02T17:11:48;15.80;60.80
8313;DHT22;4194;43.408;24.626;2023-04-02T17:14:35;16.40;61.70
8313;DHT22;4194;43.408;24.626;2023-04-02T17:17:03;16.40;61.90
8313;DHT22;4194;43.408;24.626;2023-04-02T17:19:31;15.80;62.00
8313;DHT22;4194;43.408;24.626;2023-04-02T17:22:00;15.60;62.40
8313;DHT22;4194;43.408;24.626;2023-04-02T17:24:34;15.50;62.30
8313;DHT22;4194;43.408;24.626;2023-04-02T17:27:25;15.40;62.80
8313;DHT22;4194;43.408;24.626;2023-04-02T17:29:54;15.50;63.00
8313;DHT22;4194;43.408;24.626;2023-04-02T17:32:27;15.30;63.90
8313;DHT22;4194;43.408;24.626;2023-04-02T17:38:20;15.10;64.50
8313;DHT22;4194;43.408;24.626;2023-04-02T17:41:11;15.00;64.70
8313;DHT22;4194;43.408;24.626;2023-04-02T17:48:45;14.40;65.90
8313;DHT22;4194;43.408;24.626;2023-04-02T17:51:37;14.70;67.80
8313;DHT22;4194;43.408;24.626;2023-04-02T17:54:33;14.80;67.70
8313;DHT22;4194;43.408;24.626;2023-04-02T18:05:45;15.10;69.60
8313;DHT22;4194;43.408;24.626;2023-04-02T18:08:28;14.20;69.50
8313;DHT22;4194;43.408;24.626;2023-04-02T18:13:46;14.20;70.40
8313;DHT22;4194;43.408;24.626;2023-04-02T18:16:17;15.10;72.10
8313;DHT22;4194;43.408;24.626;2023-04-02T18:19:10;15.00;72.30
8313;DHT22;4194;43.408;24.626;2023-04-02T18:45:53;12.80;76.20
8313;DHT22;4194;43.408;24.626;2023-04-02T18:50:53;14.10;78.50
8313;DHT22;4194;43.408;24.626;2023-04-02T18:53:22;14.20;78.90
8313;DHT22;4194;43.408;24.626;2023-04-02T18:55:55;13.10;78.60
8313;DHT22;4194;43.408;24.626;2023-04-02T18:58:28;13.70;78.90
8313;DHT22;4194;43.408;24.626;2023-04-02T19:00:58;13.10;78.60
8313;DHT22;4194;43.408;24.626;2023-04-02T19:03:41;13.10;79.40
8313;DHT22;4194;43.408;24.626;2023-04-02T19:08:47;13.20;80.20
8313;DHT22;4194;43.408;24.626;2023-04-02T19:11:20;13.00;80.40
8313;DHT22;4194;43.408;24.626;2023-04-02T19:13:53;12.80;80.50
8313;DHT22;4194;43.408;24.626;2023-04-02T19:19:24;13.40;81.30
8313;DHT22;4194;43.408;24.626;2023-04-02T19:35:50;13.50;82.40
8313;DHT22;4194;43.408;24.626;2023-04-02T19:43:28;12.50;82.80
8313;DHT22;4194;43.408;24.626;2023-04-02T19:45:54;12.50;83.10
8313;DHT22;4194;43.408;24.626;2023-04-02T19:48:25;12.30;82.80
8313;DHT22;4194;43.408;24.626;2023-04-02T19:50:52;11.10;81.40
8313;DHT22;4194;43.408;24.626;2023-04-02T19:53:18;12.30;83.30
8313;DHT22;4194;43.408;24.626;2023-04-02T19:55:44;12.50;83.80
8313;DHT22;4194;43.408;24.626;2023-04-02T19:58:26;12.30;83.80
8313;DHT22;4194;43.408;24.626;2023-04-02T20:00:53;11.40;82.70
8313;DHT22;4194;43.408;24.626;2023-04-02T20:03:18;12.30;84.40
8313;DHT22;4194;43.408;24.626;2023-04-02T20:05:45;11.70;83.70
8313;DHT22;4194;43.408;24.626;2023-04-02T20:08:11;12.30;85.00
8313;DHT22;4194;43.408;24.626;2023-04-02T20:10:36;13.30;85.60
8313;DHT22;4194;43.408;24.626;2023-04-02T20:13:02;11.90;84.60
8313;DHT22;4194;43.408;24.626;2023-04-02T20:15:52;12.10;85.20
8313;DHT22;4194;43.408;24.626;2023-04-02T20:18:19;11.30;84.60
8313;DHT22;4194;43.408;24.626;2023-04-02T20:20:48;12.10;86.10
8313;DHT22;4194;43.408;24.626;2023-04-02T20:23:14;11.20;84.70
8313;DHT22;4194;43.408;24.626;2023-04-02T20:25:45;12.20;86.50
8313;DHT22;4194;43.408;24.626;2023-04-02T20:28:11;12.10;86.60
8313;DHT22;4194;43.408;24.626;2023-04-02T20:30:37;12.10;86.40
8313;DHT22;4194;43.408;24.626;2023-04-02T20:33:02;12.10;86.80
8313;DHT22;4194;43.408;24.626;2023-04-02T20:35:28;12.00;86.60
8313;DHT22;4194;43.408;24.626;2023-04-02T20:37:55;10.90;85.70
8313;DHT22;4194;43.408;24.626;2023-04-02T20:40:21;13.10;88.10
8313;DHT22;4194;43.408;24.626;2023-04-02T20:42:46;12.10;87.10
8313;DHT22;4194;43.408;24.626;2023-04-02T20:45:12;11.90;87.80
8313;DHT22;4194;43.408;24.626;2023-04-02T20:47:38;12.00;87.50
8313;DHT22;4194;43.408;24.626;2023-04-02T20:50:04;11.80;87.70
8313;DHT22;4194;43.408;24.626;2023-04-02T20:52:34;11.80;88.40
8313;DHT22;4194;43.408;24.626;2023-04-02T20:55:03;11.70;88.40
8313;DHT22;4194;43.408;24.626;2023-04-02T20:57:29;11.80;88.40
8313;DHT22;4194;43.408;24.626;2023-04-02T20:59:55;13.10;88.80
8313;DHT22;4194;43.408;24.626;2023-04-02T21:02:20;11.70;88.30
8313;DHT22;4194;43.408;24.626;2023-04-02T21:04:46;11.20;86.60
8313;DHT22;4194;43.408;24.626;2023-04-02T21:07:12;11.80;87.90
8313;DHT22;4194;43.408;24.626;2023-04-02T21:09:37;12.30;87.50
8313;DHT22;4194;43.408;24.626;2023-04-02T21:12:03;11.90;87.80
8313;DHT22;4194;43.408;24.626;2023-04-02T21:14:29;11.70;87.50
8313;DHT22;4194;43.408;24.626;2023-04-02T21:17:00;11.70;87.60
8313;DHT22;4194;43.408;24.626;2023-04-02T21:19:25;11.80;87.20
8313;DHT22;4194;43.408;24.626;2023-04-02T21:21:53;12.50;88.30
8313;DHT22;4194;43.408;24.626;2023-04-02T21:24:19;12.10;88.00
8313;DHT22;4194;43.408;24.626;2023-04-02T21:26:45;11.50;88.20
8313;DHT22;4194;43.408;24.626;2023-04-02T21:29:11;12.10;89.10
8313;DHT22;4194;43.408;24.626;2023-04-02T21:31:39;11.60;88.70
8313;DHT22;4194;43.408;24.626;2023-04-02T21:34:06;11.40;89.20
8313;DHT22;4194;43.408;24.626;2023-04-02T21:36:35;11.40;89.60
8313;DHT22;4194;43.408;24.626;2023-04-02T21:39:04;11.90;89.90
8313;DHT22;4194;43.408;24.626;2023-04-02T21:41:33;11.10;89.40
8313;DHT22;4194;43.408;24.626;2023-04-02T21:44:00;11.50;90.10
8313;DHT22;4194;43.408;24.626;2023-04-02T21:46:28;11.40;90.40
8313;DHT22;4194;43.408;24.626;2023-04-02T21:48:57;11.90;90.80
8313;DHT22;4194;43.408;24.626;2023-04-02T21:51:28;11.20;90.80
8313;DHT22;4194;43.408;24.626;2023-04-02T21:53:54;10.60;90.70
8313;DHT22;4194;43.408;24.626;2023-04-02T21:56:22;10.80;91.10
8313;DHT22;4194;43.408;24.626;2023-04-02T21:58:49;11.00;91.40
8313;DHT22;4194;43.408;24.626;2023-04-02T22:01:16;10.90;91.60